createdAt,value
2023-05-19T00:01:55.074Z,97496.03
2023-05-19T00:04:21.876Z,97509.72
2023-05-19T00:06:50.318Z,97527.72
2023-05-19T00:09:16.835Z,97529.31
2023-05-19T00:11:43.397Z,97515.34
2023-05-19T00:14:10.085Z,97522.06
2023-05-19T00:16:36.724Z,97514.25
2023-05-19T00:19:03.652Z,97532.25
2023-05-19T00:21:30.167Z,97510.47
2023-05-19T00:23:56.610Z,97517.44
2023-05-19T00:26:23.318Z,97502.69
2023-05-19T00:28:49.832Z,97519.06
2023-05-19T00:31:16.695Z,97525.78
2023-05-19T00:33:43.198Z,97516.94
2023-05-19T00:36:09.660Z,97504.56
2023-05-19T00:38:36.620Z,97490.31
2023-05-19T00:41:03.658Z,97506.72
2023-05-19T00:43:30.106Z,97508.88
2023-05-19T00:45:56.955Z,97488.72
2023-05-19T00:48:24.607Z,97495.41
2023-05-19T00:50:51.225Z,97493.28
2023-05-19T00:53:17.753Z,97484.69
2023-05-19T00:55:44.274Z,97490.59
2023-05-19T00:58:10.807Z,97520.97
2023-05-19T01:00:37.364Z,97486.84
2023-05-19T01:03:04.916Z,97475.59
2023-05-19T01:05:31.602Z,97491.44
2023-05-19T01:07:58.218Z,97481.75
2023-05-19T01:10:24.676Z,97480.97
2023-05-19T01:12:51.118Z,97480.44
2023-05-19T01:15:17.804Z,97477.75
2023-05-19T01:18:03.321Z,97479.88
2023-05-19T01:20:36.289Z,97490.91
2023-05-19T01:23:05.887Z,97464.84
2023-05-19T01:25:50.547Z,97477.47
2023-05-19T01:28:35.559Z,97478.28
2023-05-19T01:31:02.096Z,97462.97
2023-05-19T01:33:28.716Z,97485.00
2023-05-19T01:35:55.436Z,97466.72
2023-05-19T01:38:21.959Z,97478.00
2023-05-19T01:40:48.486Z,97479.63
2023-05-19T01:43:16.708Z,97456.50
2023-05-19T01:45:43.157Z,97483.94
2023-05-19T01:48:11.276Z,97486.88
2023-05-19T01:50:37.882Z,97471.56
2023-05-19T01:53:04.433Z,97467.78
2023-05-19T01:55:31.017Z,97473.19
2023-05-19T01:58:16.000Z,97462.69
2023-05-19T02:00:52.730Z,97490.38
2023-05-19T02:03:42.763Z,97485.56
2023-05-19T02:06:09.256Z,97459.44
2023-05-19T02:08:38.623Z,97459.44
2023-05-19T02:11:09.170Z,97486.63
2023-05-19T02:13:36.742Z,97497.38
2023-05-19T02:16:03.789Z,97452.22
2023-05-19T02:18:30.356Z,97450.06
2023-05-19T02:20:56.853Z,97446.28
2023-05-19T02:23:23.404Z,97464.31
2023-05-19T02:25:49.928Z,97442.50
2023-05-19T02:28:16.463Z,97458.41
2023-05-19T02:30:42.913Z,97468.34
2023-05-19T02:33:09.402Z,97467.00
2023-05-19T02:35:35.936Z,97459.47
2023-05-19T02:38:02.422Z,97457.03
2023-05-19T02:40:28.888Z,97457.03
2023-05-19T02:42:55.375Z,97480.16
2023-05-19T02:45:21.909Z,97484.72
2023-05-19T02:47:48.410Z,97461.06
2023-05-19T02:50:14.896Z,97464.28
2023-05-19T02:52:41.398Z,97449.78
2023-05-19T02:55:08.077Z,97459.47
2023-05-19T02:57:34.755Z,97479.88
2023-05-19T03:00:02.473Z,97451.66
2023-05-19T03:02:29.038Z,97451.94
2023-05-19T03:04:55.576Z,97446.53
2023-05-19T03:07:22.124Z,97469.66
2023-05-19T03:09:48.674Z,97456.78
2023-05-19T03:12:15.171Z,97454.34
2023-05-19T03:14:41.704Z,97465.63
2023-05-19T03:17:08.396Z,97450.81
2023-05-19T03:19:35.036Z,97453.50
2023-05-19T03:22:01.534Z,97425.00
2023-05-19T03:24:28.070Z,97423.13
2023-05-19T03:26:54.510Z,97455.16
2023-05-19T03:29:21.178Z,97475.03
2023-05-19T03:31:47.752Z,97452.72
2023-05-19T03:34:14.310Z,97434.97
2023-05-19T03:36:40.724Z,97443.03
2023-05-19T03:39:07.182Z,97456.44
2023-05-19T03:41:33.622Z,97445.97
2023-05-19T03:44:00.103Z,97454.03
2023-05-19T03:46:26.790Z,97463.19
2023-05-19T03:48:53.322Z,97442.72
2023-05-19T03:51:19.748Z,97451.63
2023-05-19T03:53:46.214Z,97473.13
2023-05-19T03:56:12.762Z,97470.97
2023-05-19T03:58:39.518Z,97451.34
2023-05-19T04:01:06.008Z,97467.47
2023-05-19T04:03:32.564Z,97449.41
2023-05-19T04:05:59.081Z,97457.25
2023-05-19T04:08:25.499Z,97448.34
2023-05-19T04:10:51.968Z,97457.47
2023-05-19T04:13:18.401Z,97458.28
2023-05-19T04:15:44.919Z,97460.97
2023-05-19T04:18:11.578Z,97470.13
2023-05-19T04:20:38.144Z,97450.72
2023-05-19T04:23:04.685Z,97455.28
2023-05-19T04:25:31.260Z,97450.97
2023-05-19T04:27:57.904Z,97448.03
2023-05-19T04:30:24.641Z,97437.25
2023-05-19T04:32:51.211Z,97441.53
2023-05-19T04:35:18.458Z,97463.34
2023-05-19T04:37:47.985Z,97456.56
2023-05-19T04:40:14.542Z,97444.16
2023-05-19T04:42:41.129Z,97462.72
2023-05-19T04:45:08.044Z,97448.72
2023-05-19T04:47:34.824Z,97457.56
2023-05-19T04:50:01.580Z,97440.56
2023-05-19T04:52:28.160Z,97458.53
2023-05-19T04:54:54.693Z,97447.22
2023-05-19T04:57:21.221Z,97461.78
2023-05-19T04:59:47.741Z,97472.00
2023-05-19T05:02:14.907Z,97469.22
2023-05-19T05:04:41.491Z,97460.56
2023-05-19T05:07:08.305Z,97453.59
2023-05-19T05:09:34.775Z,97443.84
2023-05-19T05:12:01.676Z,97467.84
2023-05-19T05:14:28.352Z,97451.00
2023-05-19T05:16:55.038Z,97434.53
2023-05-19T05:19:21.702Z,97462.94
2023-05-19T05:21:48.292Z,97469.28
2023-05-19T05:24:14.888Z,97448.81
2023-05-19T05:26:41.608Z,97445.38
2023-05-19T05:29:08.741Z,97448.47
2023-05-19T05:31:35.666Z,97440.84
2023-05-19T05:34:02.158Z,97430.84
2023-05-19T05:36:28.578Z,97425.97
2023-05-19T05:38:55.065Z,97415.13
2023-05-19T05:41:23.300Z,97456.03
2023-05-19T05:43:49.874Z,97428.00
2023-05-19T05:46:16.649Z,97446.50
2023-05-19T05:48:43.533Z,97450.06
2023-05-19T05:51:10.177Z,97481.00
2023-05-19T05:53:37.225Z,97445.91
2023-05-19T05:56:03.866Z,97467.31
2023-05-19T05:58:30.342Z,97440.63
2023-05-19T06:00:56.845Z,97460.16
2023-05-19T06:03:23.500Z,97425.63
2023-05-19T06:05:50.027Z,97449.13
2023-05-19T06:08:16.562Z,97462.63
2023-05-19T06:10:45.112Z,97449.56
2023-05-19T06:13:13.062Z,97433.03
2023-05-19T06:15:39.654Z,97444.75
2023-05-19T06:18:06.320Z,97449.25
2023-05-19T06:20:33.184Z,97456.94
2023-05-19T06:23:00.155Z,97437.00
2023-05-19T06:25:26.697Z,97432.50
2023-05-19T06:27:53.171Z,97455.16
2023-05-19T06:30:19.684Z,97427.63
2023-05-19T06:32:46.244Z,97454.22
2023-05-19T06:35:12.825Z,97422.19
2023-05-19T06:37:39.278Z,97407.25
2023-05-19T06:40:06.092Z,97425.88
2023-05-19T06:42:32.589Z,97414.25
2023-05-19T06:44:58.991Z,97427.78
2023-05-19T06:47:25.707Z,97440.28
2023-05-19T06:49:52.666Z,97436.34
2023-05-19T06:52:19.181Z,97426.88
2023-05-19T06:54:45.736Z,97442.34
2023-05-19T06:57:12.181Z,97427.03
2023-05-19T06:59:38.651Z,97439.63
2023-05-19T07:02:05.139Z,97421.66
2023-05-19T07:04:31.672Z,97440.31
2023-05-19T07:06:58.213Z,97438.81
2023-05-19T07:09:24.763Z,97472.19
2023-05-19T07:11:51.200Z,97432.75
2023-05-19T07:14:17.619Z,97424.31
2023-05-19T07:16:44.136Z,97434.53
2023-05-19T07:19:10.638Z,97433.19
2023-05-19T07:21:37.327Z,97434.81
2023-05-19T07:24:03.883Z,97421.19
2023-05-19T07:26:30.322Z,97419.78
2023-05-19T07:28:56.766Z,97427.19
2023-05-19T07:31:23.328Z,97425.09
2023-05-19T07:33:50.727Z,97430.31
2023-05-19T07:36:18.394Z,97444.34
2023-05-19T07:38:45.907Z,97432.81
2023-05-19T07:41:12.434Z,97429.00
2023-05-19T07:43:38.908Z,97439.84
2023-05-19T07:46:05.642Z,97436.50
2023-05-19T07:48:32.112Z,97445.34
2023-05-19T07:50:58.615Z,97456.16
2023-05-19T07:53:25.170Z,97425.25
2023-05-19T07:55:51.633Z,97431.28
2023-05-19T07:58:18.104Z,97425.34
2023-05-19T08:00:44.643Z,97423.44
2023-05-19T08:03:11.398Z,97423.66
2023-05-19T08:05:37.925Z,97438.72
2023-05-19T08:08:04.451Z,97420.47
2023-05-19T08:10:31.231Z,97427.28
2023-05-19T08:12:58.115Z,97437.38
2023-05-19T08:15:24.619Z,97416.28
2023-05-19T08:17:51.096Z,97425.41
2023-05-19T08:20:17.577Z,97407.84
2023-05-19T08:22:44.067Z,97413.25
2023-05-19T08:25:10.543Z,97408.38
2023-05-19T08:27:36.989Z,97402.97
2023-05-19T08:30:03.542Z,97420.56
2023-05-19T08:32:30.057Z,97396.25
2023-05-19T08:34:56.517Z,97404.19
2023-05-19T08:37:23.020Z,97399.78
2023-05-19T08:39:49.547Z,97401.38
2023-05-19T08:42:15.985Z,97392.09
2023-05-19T08:44:42.465Z,97405.53
2023-05-19T08:47:08.980Z,97376.44
2023-05-19T08:49:35.585Z,97413.59
2023-05-19T08:52:05.099Z,97383.72
2023-05-19T08:54:33.197Z,97351.09
2023-05-19T08:56:59.672Z,97352.09
2023-05-19T08:59:26.192Z,97388.44
2023-05-19T09:01:52.676Z,97386.72
2023-05-19T09:04:19.227Z,97380.44
2023-05-19T09:06:46.040Z,97400.91
2023-05-19T09:09:12.557Z,97398.81
2023-05-19T09:11:39.084Z,97367.13
2023-05-19T09:14:05.595Z,97366.84
2023-05-19T09:16:32.611Z,97361.25
2023-05-19T09:18:59.264Z,97381.72
2023-05-19T09:21:29.230Z,97375.63
2023-05-19T09:23:55.650Z,97370.66
2023-05-19T09:26:22.385Z,97358.16
2023-05-19T09:28:48.874Z,97370.13
2023-05-19T09:31:15.313Z,97349.00
2023-05-19T09:33:44.317Z,97386.22
2023-05-19T09:36:12.284Z,97364.88
2023-05-19T09:38:38.795Z,97376.06
2023-05-19T09:41:05.894Z,97370.78
2023-05-19T09:43:32.693Z,97388.16
2023-05-19T09:46:05.896Z,97367.72
2023-05-19T09:48:32.750Z,97337.66
2023-05-19T09:51:00.236Z,97396.97
2023-05-19T09:53:26.838Z,97364.41
2023-05-19T09:55:56.473Z,97369.53
2023-05-19T09:58:22.906Z,97362.03
2023-05-19T10:00:49.350Z,97345.41
2023-05-19T10:03:15.899Z,97345.22
2023-05-19T10:05:42.468Z,97338.69
2023-05-19T10:08:08.984Z,97330.66
2023-05-19T10:10:35.485Z,97329.50
2023-05-19T10:13:02.375Z,97330.84
2023-05-19T10:15:28.867Z,97329.63
2023-05-19T10:17:55.464Z,97338.44
2023-05-19T10:20:22.744Z,97344.97
2023-05-19T10:22:49.144Z,97338.78
2023-05-19T10:25:15.707Z,97309.97
2023-05-19T10:27:42.979Z,97319.69
2023-05-19T10:30:15.747Z,97329.00
2023-05-19T10:32:43.531Z,97294.91
2023-05-19T10:35:10.057Z,97297.34
2023-05-19T10:37:42.444Z,97313.88
2023-05-19T10:40:10.475Z,97314.94
2023-05-19T10:42:41.887Z,97297.00
2023-05-19T10:45:14.619Z,97326.78
2023-05-19T10:47:41.534Z,97321.00
2023-05-19T10:50:08.302Z,97315.66
2023-05-19T10:52:38.180Z,97318.97
2023-05-19T10:55:04.889Z,97317.00
2023-05-19T10:57:31.693Z,97309.84
2023-05-19T10:59:58.219Z,97317.88
2023-05-19T11:02:40.547Z,97353.47
2023-05-19T11:05:16.151Z,97311.81
2023-05-19T11:07:42.857Z,97298.03
2023-05-19T11:10:09.389Z,97305.81
2023-05-19T11:12:42.649Z,97308.94
2023-05-19T11:15:13.326Z,97287.31
2023-05-19T11:17:40.049Z,97273.44
2023-05-19T11:20:07.457Z,97290.03
2023-05-19T11:22:34.048Z,97287.44
2023-05-19T11:25:00.688Z,97285.41
2023-05-19T11:27:27.835Z,97278.31
2023-05-19T11:29:54.935Z,97291.44
2023-05-19T11:32:21.846Z,97264.81
2023-05-19T11:34:48.756Z,97289.28
2023-05-19T11:37:15.786Z,97269.91
2023-05-19T11:39:42.244Z,97294.53
2023-05-19T11:42:08.912Z,97305.75
2023-05-19T11:44:35.342Z,97284.22
2023-05-19T11:47:01.771Z,97317.31
2023-05-19T11:49:28.853Z,97311.91
2023-05-19T11:51:55.257Z,97280.31
2023-05-19T11:54:21.835Z,97285.69
2023-05-19T11:56:48.319Z,97269.53
2023-05-19T11:59:14.806Z,97282.66
2023-05-19T12:01:41.259Z,97247.53
2023-05-19T12:04:08.275Z,97267.31
2023-05-19T12:06:34.847Z,97282.09
2023-05-19T12:09:01.307Z,97262.97
2023-05-19T12:11:28.268Z,97269.84
2023-05-19T12:13:58.667Z,97266.56
2023-05-19T12:16:33.434Z,97245.19
2023-05-19T12:19:00.332Z,97278.13
2023-05-19T12:21:34.238Z,97247.94
2023-05-19T12:24:01.008Z,97268.00
2023-05-19T12:26:27.544Z,97288.72
2023-05-19T12:28:53.968Z,97279.72
2023-05-19T12:31:20.536Z,97257.97
2023-05-19T12:33:48.500Z,97270.63
2023-05-19T12:36:15.688Z,97283.22
2023-05-19T12:38:42.173Z,97248.19
2023-05-19T12:41:10.498Z,97253.19
2023-05-19T12:43:36.957Z,97234.94
2023-05-19T12:46:12.794Z,97251.59
2023-05-19T12:48:43.260Z,97222.41
2023-05-19T12:51:09.811Z,97278.16
2023-05-19T12:53:37.423Z,97252.16
2023-05-19T12:56:10.188Z,97246.34
2023-05-19T12:58:36.702Z,97249.31
2023-05-19T13:01:03.252Z,97257.97
2023-05-19T13:03:30.168Z,97225.50
2023-05-19T13:05:56.740Z,97258.44
2023-05-19T13:08:23.295Z,97234.56
2023-05-19T13:10:49.804Z,97238.47
2023-05-19T13:13:16.249Z,97244.75
2023-05-19T13:15:46.452Z,97245.19
2023-05-19T13:18:13.172Z,97246.53
2023-05-19T13:20:40.645Z,97234.31
2023-05-19T13:23:07.197Z,97210.94
2023-05-19T13:25:33.901Z,97249.06
2023-05-19T13:28:00.490Z,97243.63
2023-05-19T13:30:27.292Z,97232.56
2023-05-19T13:32:53.817Z,97251.41
2023-05-19T13:35:20.336Z,97222.03
2023-05-19T13:37:46.872Z,97244.41
2023-05-19T13:40:13.458Z,97239.66
2023-05-19T13:42:40.379Z,97211.47
2023-05-19T13:45:07.368Z,97210.16
2023-05-19T13:47:33.868Z,97229.50
2023-05-19T13:50:00.332Z,97220.47
2023-05-19T13:52:28.377Z,97213.50
2023-05-19T13:54:56.936Z,97213.66
2023-05-19T13:57:23.672Z,97222.53
2023-05-19T14:00:02.035Z,97193.41
2023-05-19T14:02:29.820Z,97201.97
2023-05-19T14:04:56.726Z,97245.91
2023-05-19T14:07:23.182Z,97215.84
2023-05-19T14:09:49.609Z,97208.09
2023-05-19T14:12:16.114Z,97198.72
2023-05-19T14:14:42.636Z,97206.47
2023-05-19T14:17:09.408Z,97171.44
2023-05-19T14:19:36.095Z,97176.75
2023-05-19T14:22:02.522Z,97190.31
2023-05-19T14:24:28.988Z,97182.28
2023-05-19T14:26:55.588Z,97196.91
2023-05-19T14:29:22.091Z,97179.47
2023-05-19T14:31:48.692Z,97177.56
2023-05-19T14:34:15.222Z,97167.81
2023-05-19T14:36:41.671Z,97189.72
2023-05-19T14:39:08.096Z,97172.63
2023-05-19T14:41:34.596Z,97180.94
2023-05-19T14:44:01.118Z,97194.41
2023-05-19T14:46:27.822Z,97183.97
2023-05-19T14:48:54.519Z,97177.41
2023-05-19T14:51:21.028Z,97161.38
2023-05-19T14:53:47.537Z,97188.94
2023-05-19T14:56:14.204Z,97177.78
2023-05-19T14:58:40.742Z,97178.38
2023-05-19T15:01:07.363Z,97165.59
2023-05-19T15:03:33.875Z,97191.47
2023-05-19T15:06:00.500Z,97168.03
2023-05-19T15:08:26.995Z,97198.28
2023-05-19T15:10:53.485Z,97189.41
2023-05-19T15:13:19.999Z,97174.69
2023-05-19T15:15:46.558Z,97198.06
2023-05-19T15:18:13.229Z,97186.00
2023-05-19T15:20:39.933Z,97165.09
2023-05-19T15:23:06.393Z,97172.53
2023-05-19T15:25:32.902Z,97173.50
2023-05-19T15:27:59.328Z,97208.47
2023-05-19T15:30:25.771Z,97175.44
2023-05-19T15:32:52.304Z,97178.09
2023-05-19T15:35:18.838Z,97190.91
2023-05-19T15:37:45.256Z,97172.69
2023-05-19T15:40:11.883Z,97159.00
2023-05-19T15:42:38.355Z,97166.00
2023-05-19T15:45:05.512Z,97178.88
2023-05-19T15:47:32.318Z,97154.75
2023-05-19T15:49:58.830Z,97157.78
2023-05-19T15:52:25.370Z,97155.97
2023-05-19T15:54:51.914Z,97142.59
2023-05-19T15:57:18.342Z,97157.56
2023-05-19T15:59:44.775Z,97155.41
2023-05-19T16:02:11.363Z,97155.22
2023-05-19T16:04:37.897Z,97149.00
2023-05-19T16:07:04.400Z,97136.19
2023-05-19T16:09:30.911Z,97155.09
2023-05-19T16:11:57.345Z,97161.78
2023-05-19T16:14:23.799Z,97148.72
2023-05-19T16:16:50.330Z,97130.50
2023-05-19T16:19:16.851Z,97128.81
2023-05-19T16:21:43.344Z,97155.72
2023-05-19T16:24:09.825Z,97165.28
2023-05-19T16:26:36.380Z,97147.03
2023-05-19T16:29:02.779Z,97167.22
2023-05-19T16:31:29.353Z,97146.44
2023-05-19T16:33:55.833Z,97130.84
2023-05-19T16:36:22.323Z,97136.78
2023-05-19T16:38:48.892Z,97149.75
2023-05-19T16:41:15.380Z,97145.09
2023-05-19T16:43:41.812Z,97110.66
2023-05-19T16:46:08.343Z,97141.56
2023-05-19T16:48:34.807Z,97135.16
2023-05-19T16:51:01.253Z,97144.44
2023-05-19T16:53:27.733Z,97131.75
2023-05-19T16:55:54.190Z,97136.91
2023-05-19T16:58:20.625Z,97136.72
2023-05-19T17:00:50.942Z,97121.94
2023-05-19T17:03:17.528Z,97125.81
2023-05-19T17:05:44.010Z,97147.53
2023-05-19T17:08:10.602Z,97086.84
2023-05-19T17:10:37.535Z,97125.94
2023-05-19T17:13:03.969Z,97148.84
2023-05-19T17:15:30.516Z,97118.38
2023-05-19T17:17:57.000Z,97117.94
2023-05-19T17:20:23.512Z,97125.94
2023-05-19T17:22:49.993Z,97122.00
2023-05-19T17:25:16.428Z,97107.78
2023-05-19T17:27:42.870Z,97087.66
2023-05-19T17:30:09.511Z,97115.22
2023-05-19T17:32:36.158Z,97114.09
2023-05-19T17:35:02.764Z,97111.25
2023-05-19T17:37:29.595Z,97105.97
2023-05-19T17:39:56.085Z,97116.28
2023-05-19T17:42:22.550Z,97129.75
2023-05-19T17:44:49.090Z,97117.03
2023-05-19T17:47:15.532Z,97134.09
2023-05-19T17:49:41.965Z,97127.16
2023-05-19T17:52:08.731Z,97122.69
2023-05-19T17:54:35.367Z,97125.13
2023-05-19T17:57:02.038Z,97132.19
2023-05-19T17:59:28.595Z,97137.28
2023-05-19T18:01:55.213Z,97141.16
2023-05-19T18:04:21.938Z,97122.34
2023-05-19T18:06:48.559Z,97141.00
2023-05-19T18:09:15.094Z,97129.41
2023-05-19T18:11:43.378Z,97141.97
2023-05-19T18:14:09.908Z,97126.78
2023-05-19T18:16:36.391Z,97156.72
2023-05-19T18:19:03.138Z,97145.03
2023-05-19T18:21:29.784Z,97134.31
2023-05-19T18:23:56.311Z,97136.28
2023-05-19T18:26:22.766Z,97131.94
2023-05-19T18:28:49.245Z,97139.16
2023-05-19T18:31:15.843Z,97136.00
2023-05-19T18:33:42.339Z,97127.41
2023-05-19T18:36:08.846Z,97141.78
2023-05-19T18:38:35.299Z,97123.56
2023-05-19T18:41:01.821Z,97129.16
2023-05-19T18:43:28.323Z,97128.34
2023-05-19T18:45:54.834Z,97135.88
2023-05-19T18:48:21.349Z,97143.41
2023-05-19T18:50:47.813Z,97151.56
2023-05-19T18:53:14.291Z,97126.50
2023-05-19T18:55:40.732Z,97142.63
2023-05-19T18:58:07.225Z,97145.50
2023-05-19T19:00:35.461Z,97134.00
2023-05-19T19:03:02.110Z,97125.22
2023-05-19T19:05:28.667Z,97140.88
2023-05-19T19:07:55.137Z,97139.91
2023-05-19T19:10:21.729Z,97126.31
2023-05-19T19:12:48.283Z,97152.38
2023-05-19T19:15:14.746Z,97194.38
2023-05-19T19:17:41.218Z,97210.19
2023-05-19T19:20:08.162Z,97153.97
2023-05-19T19:22:34.661Z,97150.91
2023-05-19T19:25:01.153Z,97199.00
2023-05-19T19:27:27.627Z,97146.59
2023-05-19T19:29:54.053Z,97224.72
2023-05-19T19:32:20.490Z,97191.28
2023-05-19T19:34:47.239Z,97198.00
2023-05-19T19:37:13.751Z,97184.78
2023-05-19T19:39:40.242Z,97173.84
2023-05-19T19:42:06.732Z,97158.19
2023-05-19T19:44:33.205Z,97202.47
2023-05-19T19:46:59.610Z,97171.63
2023-05-19T19:49:26.178Z,97206.94
2023-05-19T19:51:52.667Z,97200.38
2023-05-19T19:54:19.111Z,97193.94
2023-05-19T19:56:45.766Z,97191.22
2023-05-19T19:59:12.244Z,97174.59
2023-05-19T20:01:38.869Z,97195.22
2023-05-19T20:04:05.518Z,97196.31
2023-05-19T20:06:32.086Z,97184.81
2023-05-19T20:08:58.596Z,97214.94
2023-05-19T20:11:25.126Z,97173.28
2023-05-19T20:13:51.627Z,97202.25
2023-05-19T20:16:18.229Z,97191.47
2023-05-19T20:18:44.775Z,97170.50
2023-05-19T20:21:11.228Z,97198.91
2023-05-19T20:23:37.671Z,97186.16
2023-05-19T20:28:36.316Z,97194.91
2023-05-19T20:31:02.744Z,97158.38
2023-05-19T20:33:29.419Z,97184.59
2023-05-19T20:35:55.823Z,97155.41
2023-05-19T20:38:22.283Z,97171.50
2023-05-19T20:40:48.820Z,97168.63
2023-05-19T20:43:15.538Z,97172.41
2023-05-19T20:45:44.863Z,97180.06
2023-05-19T20:48:11.598Z,97179.19
2023-05-19T20:50:38.978Z,97159.16
2023-05-19T20:53:05.418Z,97187.47
2023-05-19T20:55:32.124Z,97168.13
2023-05-19T20:57:58.654Z,97163.41
2023-05-19T21:00:25.095Z,97179.66
2023-05-19T21:02:51.883Z,97171.88
2023-05-19T21:05:18.398Z,97157.09
2023-05-19T21:07:45.119Z,97154.78
2023-05-19T21:10:11.612Z,97164.63
2023-05-19T21:12:38.053Z,97150.59
2023-05-19T21:15:04.601Z,97164.13
2023-05-19T21:17:31.427Z,97170.31
2023-05-19T21:19:58.077Z,97153.41
2023-05-19T21:22:25.161Z,97165.22
2023-05-19T21:24:51.678Z,97149.63
2023-05-19T21:27:18.126Z,97176.88
2023-05-19T21:29:44.572Z,97150.72
2023-05-19T21:32:11.095Z,97160.03
2023-05-19T21:34:37.511Z,97170.25
2023-05-19T21:37:03.908Z,97153.63
2023-05-19T21:39:30.397Z,97162.44
2023-05-19T21:41:56.836Z,97159.84
2023-05-19T21:44:23.258Z,97157.13
2023-05-19T21:46:49.835Z,97181.13
2023-05-19T21:49:16.548Z,97170.09
2023-05-19T21:51:43.020Z,97160.69
2023-05-19T21:54:09.501Z,97139.13
2023-05-19T21:56:36.047Z,97161.25
2023-05-19T21:59:02.483Z,97155.66
2023-05-19T22:01:29.068Z,97155.50
2023-05-19T22:03:55.586Z,97169.84
2023-05-19T22:06:22.377Z,97156.13
2023-05-19T22:08:48.924Z,97154.78
2023-05-19T22:11:15.394Z,97147.25
2023-05-19T22:13:41.921Z,97150.81
2023-05-19T22:16:08.521Z,97133.19
2023-05-19T22:18:35.040Z,97162.00
2023-05-19T22:21:01.735Z,97156.00
2023-05-19T22:23:28.174Z,97153.97
2023-05-19T22:25:54.606Z,97126.97
2023-05-19T22:28:21.020Z,97154.53
2023-05-19T22:30:47.519Z,97139.28
2023-05-19T22:33:13.983Z,97148.22
2023-05-19T22:35:40.436Z,97132.44
2023-05-19T22:38:08.878Z,97152.31
2023-05-19T22:40:36.982Z,97129.66
2023-05-19T22:43:03.460Z,97169.66
2023-05-19T22:45:31.359Z,97129.66
2023-05-19T22:47:58.018Z,97144.25
2023-05-19T22:50:24.462Z,97132.81
2023-05-19T22:52:50.952Z,97148.75
2023-05-19T22:55:17.400Z,97138.50
2023-05-19T22:57:43.812Z,97131.56
2023-05-19T23:00:10.626Z,97132.81
2023-05-19T23:02:37.235Z,97139.47
2023-05-19T23:05:03.732Z,97130.41
2023-05-19T23:07:30.328Z,97134.59
2023-05-19T23:09:56.998Z,97142.09
2023-05-19T23:12:23.458Z,97141.28
2023-05-19T23:14:50.014Z,97150.81
2023-05-19T23:17:16.526Z,97127.91
2023-05-19T23:19:42.952Z,97131.50
2023-05-19T23:22:11.200Z,97136.56
2023-05-19T23:24:38.213Z,97114.78
2023-05-19T23:27:04.796Z,97135.31
2023-05-19T23:29:31.640Z,97117.16
2023-05-19T23:31:58.113Z,97122.78
2023-05-19T23:34:24.562Z,97105.84
2023-05-19T23:36:51.061Z,97092.94
2023-05-19T23:39:17.479Z,97143.53
2023-05-19T23:41:43.938Z,97095.63
2023-05-19T23:44:10.662Z,97102.72
2023-05-19T23:46:37.148Z,97111.16
2023-05-19T23:49:03.693Z,97115.94
2023-05-19T23:51:30.312Z,97112.25
2023-05-19T23:53:56.742Z,97105.72
2023-05-19T23:56:23.192Z,97108.91
2023-05-19T23:58:50.085Z,97119.63
